sensor_id;sensor_type;location;lat;lon;timestamp;pressure;altitude;pressure_sealevel;temperature;humidity
44044;BME280;29709;52.396;16.796;2023-03-07T00:02:15;100383.41;;;-1.13;79.80
44044;BME280;29709;52.396;16.796;2023-03-07T00:05:29;100383.70;;;-1.18;79.69
44044;BME280;29709;52.396;16.796;2023-03-07T00:08:44;100390.39;;;-1.24;80.29
44044;BME280;29709;52.396;16.796;2023-03-07T00:11:57;100383.88;;;-1.34;80.21
44044;BME280;29709;52.396;16.796;2023-03-07T00:15:11;100380.73;;;-1.40;80.27
44044;BME280;29709;52.396;16.796;2023-03-07T00:18:24;100367.85;;;-1.50;80.18
44044;BME280;29709;52.396;16.796;2023-03-07T00:21:39;100362.91;;;-1.56;80.78
44044;BME280;29709;52.396;16.796;2023-03-07T00:24:52;100361.72;;;-1.52;80.49
44044;BME280;29709;52.396;16.796;2023-03-07T00:28:06;100365.27;;;-1.51;81.17
44044;BME280;29709;52.396;16.796;2023-03-07T00:31:20;100363.13;;;-1.46;80.89
44044;BME280;29709;52.396;16.796;2023-03-07T00:34:34;100354.95;;;-1.44;80.76
44044;BME280;29709;52.396;16.796;2023-03-07T00:37:48;100346.41;;;-1.51;80.63
44044;BME280;29709;52.396;16.796;2023-03-07T00:41:05;100356.86;;;-1.47;82.00
44044;BME280;29709;52.396;16.796;2023-03-07T00:44:19;100343.96;;;-1.41;80.70
44044;BME280;29709;52.396;16.796;2023-03-07T00:47:32;100347.41;;;-1.39;80.99
44044;BME280;29709;52.396;16.796;2023-03-07T00:50:46;100339.57;;;-1.30;80.93
44044;BME280;29709;52.396;16.796;2023-03-07T00:53:59;100335.78;;;-1.27;81.77
44044;BME280;29709;52.396;16.796;2023-03-07T00:57:13;100329.99;;;-1.21;81.74
44044;BME280;29709;52.396;16.796;2023-03-07T01:00:29;100319.44;;;-1.11;81.00
44044;BME280;29709;52.396;16.796;2023-03-07T01:03:44;100315.98;;;-1.13;80.91
44044;BME280;29709;52.396;16.796;2023-03-07T01:07:01;100314.27;;;-1.02;81.56
44044;BME280;29709;52.396;16.796;2023-03-07T01:10:15;100311.91;;;-0.94;81.26
44044;BME280;29709;52.396;16.796;2023-03-07T01:13:29;100306.60;;;-0.95;80.60
44044;BME280;29709;52.396;16.796;2023-03-07T01:16:43;100309.84;;;-1.03;80.50
44044;BME280;29709;52.396;16.796;2023-03-07T01:19:57;100304.98;;;-1.23;80.49
44044;BME280;29709;52.396;16.796;2023-03-07T01:23:10;100301.47;;;-1.38;81.17
44044;BME280;29709;52.396;16.796;2023-03-07T01:26:29;100306.44;;;-1.44;81.00
44044;BME280;29709;52.396;16.796;2023-03-07T01:29:43;100299.16;;;-1.57;81.19
44044;BME280;29709;52.396;16.796;2023-03-07T01:32:58;100302.18;;;-1.61;81.62
44044;BME280;29709;52.396;16.796;2023-03-07T01:39:41;100293.63;;;-1.68;82.10
44044;BME280;29709;52.396;16.796;2023-03-07T01:43:22;100289.68;;;-1.62;81.99
44044;BME280;29709;52.396;16.796;2023-03-07T01:46:29;100280.41;;;-1.58;81.94
44044;BME280;29709;52.396;16.796;2023-03-07T01:49:45;100282.24;;;-1.59;81.66
44044;BME280;29709;52.396;16.796;2023-03-07T01:52:59;100268.58;;;-1.56;81.80
44044;BME280;29709;52.396;16.796;2023-03-07T01:56:13;100267.61;;;-1.55;81.43
44044;BME280;29709;52.396;16.796;2023-03-07T01:59:33;100264.59;;;-1.50;81.95
44044;BME280;29709;52.396;16.796;2023-03-07T02:03:05;100248.20;;;-1.47;81.65
44044;BME280;29709;52.396;16.796;2023-03-07T02:06:12;100254.26;;;-1.43;81.83
44044;BME280;29709;52.396;16.796;2023-03-07T02:09:26;100253.07;;;-1.39;81.49
44044;BME280;29709;52.396;16.796;2023-03-07T02:12:41;100246.92;;;-1.41;81.65
44044;BME280;29709;52.396;16.796;2023-03-07T02:15:55;100242.06;;;-1.36;81.91
44044;BME280;29709;52.396;16.796;2023-03-07T02:19:27;100237.02;;;-1.28;81.39
44044;BME280;29709;52.396;16.796;2023-03-07T02:22:34;100234.02;;;-1.24;81.78
44044;BME280;29709;52.396;16.796;2023-03-07T02:29:14;100228.51;;;-1.22;81.33
44044;BME280;29709;52.396;16.796;2023-03-07T02:32:27;100226.11;;;-1.27;81.29
44044;BME280;29709;52.396;16.796;2023-03-07T02:35:42;100213.95;;;-1.32;81.29
44044;BME280;29709;52.396;16.796;2023-03-07T02:38:58;100207.69;;;-1.33;81.49
44044;BME280;29709;52.396;16.796;2023-03-07T02:42:17;100201.33;;;-1.44;81.85
44044;BME280;29709;52.396;16.796;2023-03-07T02:45:32;100192.90;;;-1.53;82.26
44044;BME280;29709;52.396;16.796;2023-03-07T02:48:46;100188.38;;;-1.52;82.06
44044;BME280;29709;52.396;16.796;2023-03-07T02:51:59;100173.70;;;-1.48;82.36
44044;BME280;29709;52.396;16.796;2023-03-07T02:55:13;100170.82;;;-1.45;81.74
44044;BME280;29709;52.396;16.796;2023-03-07T02:58:26;100169.82;;;-1.57;81.22
44044;BME280;29709;52.396;16.796;2023-03-07T03:01:40;100161.32;;;-1.63;81.66
44044;BME280;29709;52.396;16.796;2023-03-07T03:04:54;100165.27;;;-1.69;81.47
44044;BME280;29709;52.396;16.796;2023-03-07T03:08:07;100159.03;;;-1.69;81.63
44044;BME280;29709;52.396;16.796;2023-03-07T03:11:21;100159.70;;;-1.66;81.81
44044;BME280;29709;52.396;16.796;2023-03-07T03:14:35;100158.84;;;-1.66;81.82
44044;BME280;29709;52.396;16.796;2023-03-07T03:17:48;100154.31;;;-1.66;81.66
44044;BME280;29709;52.396;16.796;2023-03-07T03:21:09;100137.82;;;-1.61;82.10
44044;BME280;29709;52.396;16.796;2023-03-07T03:24:23;100144.63;;;-1.56;82.21
44044;BME280;29709;52.396;16.796;2023-03-07T03:27:38;100130.29;;;-1.56;82.02
44044;BME280;29709;52.396;16.796;2023-03-07T03:30:58;100129.39;;;-1.57;82.18
44044;BME280;29709;52.396;16.796;2023-03-07T03:34:12;100124.01;;;-1.57;82.43
44044;BME280;29709;52.396;16.796;2023-03-07T03:37:25;100114.75;;;-1.53;82.35
44044;BME280;29709;52.396;16.796;2023-03-07T03:40:39;100119.50;;;-1.43;82.87
44044;BME280;29709;52.396;16.796;2023-03-07T03:43:53;100107.40;;;-1.38;82.74
44044;BME280;29709;52.396;16.796;2023-03-07T03:47:07;100115.46;;;-1.25;82.40
44044;BME280;29709;52.396;16.796;2023-03-07T03:50:20;100101.33;;;-1.16;82.67
44044;BME280;29709;52.396;16.796;2023-03-07T03:53:35;100098.09;;;-1.08;82.39
44044;BME280;29709;52.396;16.796;2023-03-07T03:56:49;100102.93;;;-1.01;82.68
44044;BME280;29709;52.396;16.796;2023-03-07T04:00:03;100103.31;;;-0.94;82.33
44044;BME280;29709;52.396;16.796;2023-03-07T04:03:17;100101.78;;;-0.85;82.41
44044;BME280;29709;52.396;16.796;2023-03-07T04:06:33;100089.70;;;-0.80;82.22
44044;BME280;29709;52.396;16.796;2023-03-07T04:09:46;100080.50;;;-0.77;81.91
44044;BME280;29709;52.396;16.796;2023-03-07T04:13:01;100075.98;;;-0.77;82.43
44044;BME280;29709;52.396;16.796;2023-03-07T04:16:15;100064.25;;;-0.65;82.33
44044;BME280;29709;52.396;16.796;2023-03-07T04:19:29;100054.20;;;-0.63;82.36
44044;BME280;29709;52.396;16.796;2023-03-07T04:22:42;100047.37;;;-0.55;81.84
44044;BME280;29709;52.396;16.796;2023-03-07T04:25:58;100044.55;;;-0.54;81.83
44044;BME280;29709;52.396;16.796;2023-03-07T04:29:12;100042.88;;;-0.44;82.87
44044;BME280;29709;52.396;16.796;2023-03-07T04:32:25;100038.29;;;-0.31;82.33
44044;BME280;29709;52.396;16.796;2023-03-07T04:35:39;100035.21;;;-0.26;81.79
44044;BME280;29709;52.396;16.796;2023-03-07T04:38:54;100030.40;;;-0.34;82.33
44044;BME280;29709;52.396;16.796;2023-03-07T04:42:07;100034.59;;;-0.30;82.26
44044;BME280;29709;52.396;16.796;2023-03-07T04:45:21;100036.08;;;-0.25;82.29
44044;BME280;29709;52.396;16.796;2023-03-07T04:48:35;100026.87;;;-0.23;81.91
44044;BME280;29709;52.396;16.796;2023-03-07T04:51:48;100024.42;;;-0.26;81.77
44044;BME280;29709;52.396;16.796;2023-03-07T04:55:02;100011.77;;;-0.25;82.34
44044;BME280;29709;52.396;16.796;2023-03-07T04:58:16;100003.42;;;-0.22;83.33
44044;BME280;29709;52.396;16.796;2023-03-07T05:01:29;100005.19;;;-0.10;82.48
44044;BME280;29709;52.396;16.796;2023-03-07T05:04:43;99996.84;;;-0.07;82.28
44044;BME280;29709;52.396;16.796;2023-03-07T05:07:56;99988.86;;;-0.09;82.57
44044;BME280;29709;52.396;16.796;2023-03-07T05:11:10;99986.63;;;-0.15;82.42
44044;BME280;29709;52.396;16.796;2023-03-07T05:14:23;99982.68;;;-0.22;82.87
44044;BME280;29709;52.396;16.796;2023-03-07T05:17:37;99987.00;;;-0.19;83.27
44044;BME280;29709;52.396;16.796;2023-03-07T05:20:51;99983.07;;;-0.15;83.17
44044;BME280;29709;52.396;16.796;2023-03-07T05:24:05;99969.96;;;-0.09;83.04
44044;BME280;29709;52.396;16.796;2023-03-07T05:27:19;99973.14;;;-0.04;82.67
44044;BME280;29709;52.396;16.796;2023-03-07T05:30:33;99968.34;;;-0.11;82.47
44044;BME280;29709;52.396;16.796;2023-03-07T05:33:46;99964.30;;;-0.06;83.27
44044;BME280;29709;52.396;16.796;2023-03-07T05:37:00;99959.64;;;0.08;82.84
44044;BME280;29709;52.396;16.796;2023-03-07T05:40:13;99955.59;;;0.13;82.72
44044;BME280;29709;52.396;16.796;2023-03-07T05:43:27;99942.09;;;0.13;82.59
44044;BME280;29709;52.396;16.796;2023-03-07T05:46:41;99940.47;;;-0.01;82.94
44044;BME280;29709;52.396;16.796;2023-03-07T05:49:54;99938.54;;;0.02;83.23
44044;BME280;29709;52.396;16.796;2023-03-07T05:53:08;99925.63;;;0.05;82.95
44044;BME280;29709;52.396;16.796;2023-03-07T05:56:21;99919.24;;;0.06;83.72
44044;BME280;29709;52.396;16.796;2023-03-07T05:59:35;99911.39;;;0.14;83.15
44044;BME280;29709;52.396;16.796;2023-03-07T06:02:49;99914.34;;;0.11;83.31
44044;BME280;29709;52.396;16.796;2023-03-07T06:06:03;99907.10;;;0.12;83.18
44044;BME280;29709;52.396;16.796;2023-03-07T06:09:17;99902.16;;;0.17;83.77
44044;BME280;29709;52.396;16.796;2023-03-07T06:12:30;99904.38;;;0.23;83.99
44044;BME280;29709;52.396;16.796;2023-03-07T06:15:44;99891.21;;;0.29;83.96
44044;BME280;29709;52.396;16.796;2023-03-07T06:18:57;99888.38;;;0.42;83.78
44044;BME280;29709;52.396;16.796;2023-03-07T06:22:11;99885.66;;;0.53;83.85
44044;BME280;29709;52.396;16.796;2023-03-07T06:25:24;99885.76;;;0.63;83.99
44044;BME280;29709;52.396;16.796;2023-03-07T06:28:39;99880.90;;;0.78;83.25
44044;BME280;29709;52.396;16.796;2023-03-07T06:31:53;99886.66;;;0.84;83.46
44044;BME280;29709;52.396;16.796;2023-03-07T06:35:07;99876.88;;;0.93;83.51
44044;BME280;29709;52.396;16.796;2023-03-07T06:38:21;99868.98;;;1.01;83.73
44044;BME280;29709;52.396;16.796;2023-03-07T06:41:36;99861.80;;;1.11;83.16
44044;BME280;29709;52.396;16.796;2023-03-07T06:44:49;99856.25;;;1.13;82.79
44044;BME280;29709;52.396;16.796;2023-03-07T06:48:03;99854.67;;;1.10;83.79
44044;BME280;29709;52.396;16.796;2023-03-07T06:51:17;99845.19;;;1.16;83.32
44044;BME280;29709;52.396;16.796;2023-03-07T06:54:30;99843.91;;;1.20;83.84
44044;BME280;29709;52.396;16.796;2023-03-07T06:57:44;99834.59;;;1.34;83.89
44044;BME280;29709;52.396;16.796;2023-03-07T07:00:58;99831.04;;;1.33;83.59
44044;BME280;29709;52.396;16.796;2023-03-07T07:04:11;99825.95;;;1.40;83.52
44044;BME280;29709;52.396;16.796;2023-03-07T07:07:25;99818.69;;;1.40;83.66
44044;BME280;29709;52.396;16.796;2023-03-07T07:10:38;99820.31;;;1.53;83.90
44044;BME280;29709;52.396;16.796;2023-03-07T07:13:52;99806.11;;;1.60;83.96
44044;BME280;29709;52.396;16.796;2023-03-07T07:17:06;99810.72;;;1.69;84.13
44044;BME280;29709;52.396;16.796;2023-03-07T07:20:19;99802.03;;;1.76;83.67
44044;BME280;29709;52.396;16.796;2023-03-07T07:23:33;99800.06;;;1.78;84.20
44044;BME280;29709;52.396;16.796;2023-03-07T07:26:46;99802.63;;;1.79;84.24
44044;BME280;29709;52.396;16.796;2023-03-07T07:30:00;99791.23;;;1.85;83.82
44044;BME280;29709;52.396;16.796;2023-03-07T07:33:14;99792.94;;;1.86;84.17
44044;BME280;29709;52.396;16.796;2023-03-07T07:36:28;99787.84;;;1.93;83.97
44044;BME280;29709;52.396;16.796;2023-03-07T07:39:42;99786.88;;;2.03;84.43
44044;BME280;29709;52.396;16.796;2023-03-07T07:42:56;99777.34;;;2.09;84.14
44044;BME280;29709;52.396;16.796;2023-03-07T07:46:10;99775.62;;;2.18;83.93
44044;BME280;29709;52.396;16.796;2023-03-07T07:49:24;99774.06;;;2.25;84.11
44044;BME280;29709;52.396;16.796;2023-03-07T07:52:37;99771.94;;;2.38;84.27
44044;BME280;29709;52.396;16.796;2023-03-07T07:55:51;99766.82;;;2.45;84.35
44044;BME280;29709;52.396;16.796;2023-03-07T07:59:04;99764.66;;;2.48;83.90
44044;BME280;29709;52.396;16.796;2023-03-07T08:02:18;99758.98;;;2.51;83.84
44044;BME280;29709;52.396;16.796;2023-03-07T08:05:31;99747.27;;;2.60;83.37
44044;BME280;29709;52.396;16.796;2023-03-07T08:08:45;99740.85;;;2.62;83.71
44044;BME280;29709;52.396;16.796;2023-03-07T08:12:00;99738.12;;;2.71;83.66
44044;BME280;29709;52.396;16.796;2023-03-07T08:15:13;99737.68;;;2.76;83.72
44044;BME280;29709;52.396;16.796;2023-03-07T08:18:29;99724.41;;;2.82;83.34
44044;BME280;29709;52.396;16.796;2023-03-07T08:21:42;99719.38;;;2.87;83.24
44044;BME280;29709;52.396;16.796;2023-03-07T08:24:56;99716.35;;;3.00;83.16
44044;BME280;29709;52.396;16.796;2023-03-07T08:28:09;99718.89;;;3.11;82.40
44044;BME280;29709;52.396;16.796;2023-03-07T08:31:24;99721.91;;;3.08;81.95
44044;BME280;29709;52.396;16.796;2023-03-07T08:34:38;99721.91;;;3.08;82.32
44044;BME280;29709;52.396;16.796;2023-03-07T08:37:55;99712.59;;;3.21;82.21
44044;BME280;29709;52.396;16.796;2023-03-07T08:41:13;99708.98;;;3.30;81.73
44044;BME280;29709;52.396;16.796;2023-03-07T08:44:26;99712.36;;;3.41;81.33
44044;BME280;29709;52.396;16.796;2023-03-07T08:47:40;99707.94;;;3.40;80.91
44044;BME280;29709;52.396;16.796;2023-03-07T08:50:54;99700.80;;;3.39;80.78
44044;BME280;29709;52.396;16.796;2023-03-07T08:54:08;99704.63;;;3.46;80.75
44044;BME280;29709;52.396;16.796;2023-03-07T08:57:21;99708.59;;;3.52;80.49
44044;BME280;29709;52.396;16.796;2023-03-07T09:00:38;99707.50;;;3.45;80.41
44044;BME280;29709;52.396;16.796;2023-03-07T09:03:51;99696.22;;;3.40;80.60
44044;BME280;29709;52.396;16.796;2023-03-07T09:07:05;99703.67;;;3.38;80.74
44044;BME280;29709;52.396;16.796;2023-03-07T09:10:22;99700.29;;;3.26;80.81
44044;BME280;29709;52.396;16.796;2023-03-07T09:13:35;99698.02;;;3.12;81.28
44044;BME280;29709;52.396;16.796;2023-03-07T09:16:49;99699.91;;;3.02;81.90
44044;BME280;29709;52.396;16.796;2023-03-07T09:20:03;99697.67;;;2.87;82.93
44044;BME280;29709;52.396;16.796;2023-03-07T09:23:17;99697.29;;;2.73;83.47
44044;BME280;29709;52.396;16.796;2023-03-07T09:26:31;99690.41;;;2.69;84.13
44044;BME280;29709;52.396;16.796;2023-03-07T09:29:46;99698.15;;;2.64;84.50
44044;BME280;29709;52.396;16.796;2023-03-07T09:32:59;99702.58;;;2.55;84.89
44044;BME280;29709;52.396;16.796;2023-03-07T09:36:14;99693.45;;;2.56;85.26
44044;BME280;29709;52.396;16.796;2023-03-07T09:39:30;99688.32;;;2.53;85.59
44044;BME280;29709;52.396;16.796;2023-03-07T09:42:54;99694.60;;;2.53;85.87
44044;BME280;29709;52.396;16.796;2023-03-07T09:49:46;99682.74;;;2.54;86.02
44044;BME280;29709;52.396;16.796;2023-03-07T09:53:02;99681.59;;;2.57;86.46
44044;BME280;29709;52.396;16.796;2023-03-07T09:59:47;99688.02;;;2.56;87.11
44044;BME280;29709;52.396;16.796;2023-03-07T10:06:37;99685.45;;;2.64;87.36
44044;BME280;29709;52.396;16.796;2023-03-07T10:09:56;99691.71;;;2.74;87.30
44044;BME280;29709;52.396;16.796;2023-03-07T10:16:47;99674.57;;;2.83;87.24
44044;BME280;29709;52.396;16.796;2023-03-07T10:27:01;99669.69;;;2.87;87.11
44044;BME280;29709;52.396;16.796;2023-03-07T10:30:18;99665.66;;;2.91;87.49
44044;BME280;29709;52.396;16.796;2023-03-07T10:33:33;99659.20;;;3.02;87.26
44044;BME280;29709;52.396;16.796;2023-03-07T10:36:49;99653.03;;;3.09;87.17
44044;BME280;29709;52.396;16.796;2023-03-07T10:40:07;99651.02;;;3.11;86.88
44044;BME280;29709;52.396;16.796;2023-03-07T10:43:27;99647.27;;;3.22;86.95
44044;BME280;29709;52.396;16.796;2023-03-07T10:46:43;99644.12;;;3.27;86.73
44044;BME280;29709;52.396;16.796;2023-03-07T10:50:15;99650.40;;;3.27;86.27
44044;BME280;29709;52.396;16.796;2023-03-07T10:53:26;99639.55;;;3.27;86.69
44044;BME280;29709;52.396;16.796;2023-03-07T10:57:05;99631.09;;;3.30;86.50
44044;BME280;29709;52.396;16.796;2023-03-07T11:00:16;99631.19;;;3.38;86.46
44044;BME280;29709;52.396;16.796;2023-03-07T11:07:01;99620.66;;;3.53;86.34
44044;BME280;29709;52.396;16.796;2023-03-07T11:10:26;99619.21;;;3.59;86.28
44044;BME280;29709;52.396;16.796;2023-03-07T11:13:42;99613.24;;;3.73;85.93
44044;BME280;29709;52.396;16.796;2023-03-07T11:17:02;99604.48;;;3.79;86.41
44044;BME280;29709;52.396;16.796;2023-03-07T11:20:26;99603.55;;;3.88;85.15
44044;BME280;29709;52.396;16.796;2023-03-07T11:23:40;99605.43;;;3.88;85.47
44044;BME280;29709;52.396;16.796;2023-03-07T11:26:56;99602.91;;;3.94;85.12
44044;BME280;29709;52.396;16.796;2023-03-07T11:30:26;99607.91;;;3.99;84.94
44044;BME280;29709;52.396;16.796;2023-03-07T11:33:50;99592.66;;;4.06;85.00
44044;BME280;29709;52.396;16.796;2023-03-07T11:37:11;99593.92;;;4.12;84.47
44044;BME280;29709;52.396;16.796;2023-03-07T11:50:48;99577.86;;;4.44;83.55
44044;BME280;29709;52.396;16.796;2023-03-07T11:54:14;99584.14;;;4.45;83.43
44044;BME280;29709;52.396;16.796;2023-03-07T11:57:45;99574.97;;;4.46;83.59
44044;BME280;29709;52.396;16.796;2023-03-07T12:08:05;99565.52;;;4.58;82.46
44044;BME280;29709;52.396;16.796;2023-03-07T12:28:36;99539.67;;;4.88;82.02
44044;BME280;29709;52.396;16.796;2023-03-07T12:31:55;99533.75;;;4.92;82.17
44044;BME280;29709;52.396;16.796;2023-03-07T12:42:04;99520.70;;;5.04;82.09
44044;BME280;29709;52.396;16.796;2023-03-07T12:45:27;99518.18;;;5.19;81.86
44044;BME280;29709;52.396;16.796;2023-03-07T12:49:09;99524.18;;;5.23;81.24
44044;BME280;29709;52.396;16.796;2023-03-07T12:55:44;99521.11;;;5.26;81.57
44044;BME280;29709;52.396;16.796;2023-03-07T13:02:27;99514.13;;;5.31;81.94
44044;BME280;29709;52.396;16.796;2023-03-07T13:05:43;99511.95;;;5.35;81.76
44044;BME280;29709;52.396;16.796;2023-03-07T13:08:59;99516.00;;;5.31;82.04
44044;BME280;29709;52.396;16.796;2023-03-07T13:12:27;99511.09;;;5.34;82.26
44044;BME280;29709;52.396;16.796;2023-03-07T13:16:00;99510.42;;;5.32;82.12
44044;BME280;29709;52.396;16.796;2023-03-07T13:26:00;99495.85;;;5.07;83.20
44044;BME280;29709;52.396;16.796;2023-03-07T13:29:15;99498.74;;;5.06;83.55
44044;BME280;29709;52.396;16.796;2023-03-07T13:35:58;99488.02;;;5.04;84.49
44044;BME280;29709;52.396;16.796;2023-03-07T13:42:44;99478.19;;;5.11;84.26
44044;BME280;29709;52.396;16.796;2023-03-07T13:46:00;99483.46;;;5.13;84.34
44044;BME280;29709;52.396;16.796;2023-03-07T13:52:41;99465.90;;;5.07;84.59
44044;BME280;29709;52.396;16.796;2023-03-07T13:59:35;99454.67;;;5.02;84.92
44044;BME280;29709;52.396;16.796;2023-03-07T14:02:50;99452.97;;;5.01;85.45
44044;BME280;29709;52.396;16.796;2023-03-07T14:09:40;99456.02;;;5.06;85.67
44044;BME280;29709;52.396;16.796;2023-03-07T14:19:58;99442.76;;;5.03;85.85
44044;BME280;29709;52.396;16.796;2023-03-07T14:26:40;99421.79;;;4.96;86.35
44044;BME280;29709;52.396;16.796;2023-03-07T14:29:56;99417.37;;;4.95;85.83
44044;BME280;29709;52.396;16.796;2023-03-07T14:33:14;99421.27;;;5.00;86.35
44044;BME280;29709;52.396;16.796;2023-03-07T14:36:30;99414.13;;;4.99;86.08
44044;BME280;29709;52.396;16.796;2023-03-07T14:50:13;99391.33;;;5.00;86.24
44044;BME280;29709;52.396;16.796;2023-03-07T14:53:29;99400.21;;;5.02;86.41
44044;BME280;29709;52.396;16.796;2023-03-07T14:56:48;99399.52;;;5.08;86.25
44044;BME280;29709;52.396;16.796;2023-03-07T15:03:24;99390.34;;;5.17;86.03
44044;BME280;29709;52.396;16.796;2023-03-07T15:06:42;99387.27;;;5.20;86.29
44044;BME280;29709;52.396;16.796;2023-03-07T15:09:56;99378.96;;;5.22;85.72
44044;BME280;29709;52.396;16.796;2023-03-07T15:13:23;99374.36;;;5.23;85.54
44044;BME280;29709;52.396;16.796;2023-03-07T15:16:38;99381.52;;;5.24;85.28
44044;BME280;29709;52.396;16.796;2023-03-07T15:20:00;99372.67;;;5.21;85.22
44044;BME280;29709;52.396;16.796;2023-03-07T15:23:21;99358.70;;;5.25;85.13
44044;BME280;29709;52.396;16.796;2023-03-07T15:26:36;99352.22;;;5.26;85.17
44044;BME280;29709;52.396;16.796;2023-03-07T15:29:50;99351.02;;;5.28;85.03
44044;BME280;29709;52.396;16.796;2023-03-07T15:36:28;99344.23;;;5.32;84.31
44044;BME280;29709;52.396;16.796;2023-03-07T15:39:41;99347.28;;;5.29;84.07
44044;BME280;29709;52.396;16.796;2023-03-07T15:42:57;99343.38;;;5.32;84.47
44044;BME280;29709;52.396;16.796;2023-03-07T15:46:16;99345.94;;;5.33;83.68
44044;BME280;29709;52.396;16.796;2023-03-07T15:53:06;99342.02;;;5.36;83.07
44044;BME280;29709;52.396;16.796;2023-03-07T15:59:57;99331.96;;;5.44;82.38
44044;BME280;29709;52.396;16.796;2023-03-07T16:06:45;99336.03;;;5.48;82.47
44044;BME280;29709;52.396;16.796;2023-03-07T16:09:59;99333.31;;;5.48;82.76
44044;BME280;29709;52.396;16.796;2023-03-07T16:13:15;99325.13;;;5.48;82.00
44044;BME280;29709;52.396;16.796;2023-03-07T16:16:29;99327.70;;;5.50;82.23
44044;BME280;29709;52.396;16.796;2023-03-07T16:19:43;99322.59;;;5.55;82.24
44044;BME280;29709;52.396;16.796;2023-03-07T16:22:57;99317.45;;;5.60;81.75
44044;BME280;29709;52.396;16.796;2023-03-07T16:26:16;99319.02;;;5.63;81.16
44044;BME280;29709;52.396;16.796;2023-03-07T16:29:30;99331.77;;;5.62;80.50
44044;BME280;29709;52.396;16.796;2023-03-07T16:32:44;99410.12;;;5.60;81.12
44044;BME280;29709;52.396;16.796;2023-03-07T16:35:58;99423.38;;;5.31;79.78
44044;BME280;29709;52.396;16.796;2023-03-07T16:39:11;99431.94;;;4.77;79.62
44044;BME280;29709;52.396;16.796;2023-03-07T16:42:25;99427.61;;;4.24;79.89
44044;BME280;29709;52.396;16.796;2023-03-07T16:45:39;99438.45;;;3.90;81.00
44044;BME280;29709;52.396;16.796;2023-03-07T16:48:53;99448.98;;;3.67;81.59
44044;BME280;29709;52.396;16.796;2023-03-07T16:52:11;99446.76;;;3.45;82.48
44044;BME280;29709;52.396;16.796;2023-03-07T16:55:25;99439.54;;;3.36;82.75
44044;BME280;29709;52.396;16.796;2023-03-07T16:58:39;99452.43;;;3.34;82.70
44044;BME280;29709;52.396;16.796;2023-03-07T17:01:53;99447.20;;;3.23;82.87
44044;BME280;29709;52.396;16.796;2023-03-07T17:05:18;99464.44;;;3.13;83.27
44044;BME280;29709;52.396;16.796;2023-03-07T17:08:33;99463.55;;;2.95;83.56
44044;BME280;29709;52.396;16.796;2023-03-07T17:11:49;99463.45;;;2.87;83.89
44044;BME280;29709;52.396;16.796;2023-03-07T17:15:06;99466.48;;;2.84;84.56
44044;BME280;29709;52.396;16.796;2023-03-07T17:18:20;99472.18;;;2.81;84.51
44044;BME280;29709;52.396;16.796;2023-03-07T17:21:34;99482.91;;;2.82;84.79
44044;BME280;29709;52.396;16.796;2023-03-07T17:24:48;99490.64;;;2.77;84.78
44044;BME280;29709;52.396;16.796;2023-03-07T17:28:05;99506.91;;;2.77;85.49
44044;BME280;29709;52.396;16.796;2023-03-07T17:31:19;99497.61;;;2.80;84.77
44044;BME280;29709;52.396;16.796;2023-03-07T17:34:34;99499.39;;;2.71;85.09
44044;BME280;29709;52.396;16.796;2023-03-07T17:37:51;99514.79;;;2.71;85.08
44044;BME280;29709;52.396;16.796;2023-03-07T17:41:05;99493.80;;;2.73;85.32
44044;BME280;29709;52.396;16.796;2023-03-07T17:44:19;99483.51;;;2.76;85.09
44044;BME280;29709;52.396;16.796;2023-03-07T17:47:33;99494.66;;;2.73;85.06
44044;BME280;29709;52.396;16.796;2023-03-07T17:50:46;99485.37;;;2.76;85.19
44044;BME280;29709;52.396;16.796;2023-03-07T17:54:00;99502.91;;;2.81;85.19
44044;BME280;29709;52.396;16.796;2023-03-07T17:57:15;99518.30;;;2.81;84.91
44044;BME280;29709;52.396;16.796;2023-03-07T18:00:28;99530.04;;;2.81;84.80
44044;BME280;29709;52.396;16.796;2023-03-07T18:03:43;99520.33;;;2.79;85.15
44044;BME280;29709;52.396;16.796;2023-03-07T18:06:58;99515.59;;;2.81;85.09
44044;BME280;29709;52.396;16.796;2023-03-07T18:10:11;99504.62;;;2.82;84.97
44044;BME280;29709;52.396;16.796;2023-03-07T18:13:25;99494.16;;;2.87;85.03
44044;BME280;29709;52.396;16.796;2023-03-07T18:16:40;99500.97;;;2.92;84.85
44044;BME280;29709;52.396;16.796;2023-03-07T18:19:56;99513.41;;;2.94;84.67
44044;BME280;29709;52.396;16.796;2023-03-07T18:23:10;99515.98;;;2.96;84.48
44044;BME280;29709;52.396;16.796;2023-03-07T18:26:24;99529.84;;;2.93;84.32
44044;BME280;29709;52.396;16.796;2023-03-07T18:29:37;99538.10;;;2.91;84.60
44044;BME280;29709;52.396;16.796;2023-03-07T18:32:52;99509.31;;;2.80;84.65
44044;BME280;29709;52.396;16.796;2023-03-07T18:36:13;99520.55;;;2.95;84.38
44044;BME280;29709;52.396;16.796;2023-03-07T18:39:27;99534.97;;;2.96;84.33
44044;BME280;29709;52.396;16.796;2023-03-07T18:42:40;99502.25;;;2.97;84.40
44044;BME280;29709;52.396;16.796;2023-03-07T18:45:54;99503.79;;;3.00;84.09
44044;BME280;29709;52.396;16.796;2023-03-07T18:49:08;99525.66;;;2.98;83.77
44044;BME280;29709;52.396;16.796;2023-03-07T18:52:22;99552.41;;;2.93;83.72
44044;BME280;29709;52.396;16.796;2023-03-07T18:55:38;99568.59;;;2.85;83.83
44044;BME280;29709;52.396;16.796;2023-03-07T18:58:55;99558.03;;;2.82;84.07
44044;BME280;29709;52.396;16.796;2023-03-07T19:02:11;99562.73;;;2.80;84.17
44044;BME280;29709;52.396;16.796;2023-03-07T19:05:24;99564.44;;;2.81;84.25
44044;BME280;29709;52.396;16.796;2023-03-07T19:08:38;99568.73;;;2.83;84.12
44044;BME280;29709;52.396;16.796;2023-03-07T19:11:52;99569.74;;;2.82;83.89
44044;BME280;29709;52.396;16.796;2023-03-07T19:15:06;99552.89;;;2.79;83.77
44044;BME280;29709;52.396;16.796;2023-03-07T19:18:20;99554.35;;;2.73;83.97
44044;BME280;29709;52.396;16.796;2023-03-07T19:21:33;99560.63;;;2.74;84.10
44044;BME280;29709;52.396;16.796;2023-03-07T19:24:47;99559.47;;;2.76;84.13
44044;BME280;29709;52.396;16.796;2023-03-07T19:28:01;99575.35;;;2.71;84.57
44044;BME280;29709;52.396;16.796;2023-03-07T19:31:18;99569.31;;;2.77;84.65